Almond, NY (14804)

7:40 AM EDT on July 23, 2016 (GMT -0400)
Ardachy Farm | | Change Station

Elev 1877 ft 42.28 °N, 77.77 °W | Updated 9 seconds ago

Clear
Clear
74.5 °F
Feels Like 77 °F
N
3.1
Wind Variable Wind from NW
Gusts 8.3 mph

Today
High -- | Low -- °F
--% Chance of Precip.
Yesterday
High -- | Low -- °F
Precip. -- in
Pressure 29.98 in
Visibility 10.0 miles
Clouds Clear
Heat Index 77 °F
Dew Point 60 °F
Humidity 61%
Rainfall 0.00 in
Snow Depth Not available.
5:55 AM 8:39 PM
Waning Gibbous, 86% visible
METAR KELZ 231056Z AUTO 28007KT 10SM CLR 20/17 A3002 RMK AO2 SLP150 T02000172
Pressure 29.98 in
Visibility 10.0 miles
Clouds Clear
Heat Index 77 °F
Dew Point 60 °F
Humidity 61%
Rainfall 0.00 in
Snow Depth Not available.
5:55 AM 8:39 PM
Waning Gibbous, 86% visible
METAR KELZ 231056Z AUTO 28007KT 10SM CLR 20/17 A3002 RMK AO2 SLP150 T02000172

10-Day Weather Forecast

Almanac

Astronomy

Jul. 23, 2016 Rise Set
Actual Time
Civil Twilight
Nautical Twilight
Astronomical Twilight
Moon
Length of Visible Light
Length of Day
Tomorrow will be .
, % of the Moon is Illuminated

Today's Extremes

State Highs State Lows

Community

WunderPhotos

Upload Photos

1,926,810 photos uploaded!

WunderBlog® & News

Nearby

Air Quality

  Air Quality AQ Index Pollutant
Not available.

Snow Depth

Station Depth Elevation

Earthquake Activity

City Distance Mag. Time & Date
Minimum magnitude displayed is 2.5.

Coastal Water Temperatures

Place Temperature

Stations

Nearby Weather Stations

Station Location Temp. Windchill Dew Point Humidity Wind Precip. Elev Updated Type
                   

Watches & Warnings

There are currently no watches in effect.